This is the latest recevied weather packets stored in our database for station/object K5IDL. If no packets are shown the sender has not sent any weather packets the latest 10 day(s).
| Time | Temp. | Humidity | Pressure | Rain* | Wind** | Luminosity | Snow |
|---|---|---|---|---|---|---|---|
| 1788706436 | 32.78° C | 67% | 1015.4 hPa | 0 mm | - | 298 W/m² | - |
| 1788706131 | 32.78° C | 67% | 1015.4 hPa | 0 mm | - | 282 W/m² | - |
| 1788705826 | 33.33° C | 63% | 1015.4 hPa | 0 mm | - | 268 W/m² | - |
| 1788705520 | 31.67° C | 67% | 1015.4 hPa | 0 mm | - | 255 W/m² | - |
| 1788705216 | 32.78° C | 68% | 1015.6 hPa | 0 mm | - | 241 W/m² | - |
| 1788704912 | 31.11° C | 70% | 1015.6 hPa | 0 mm | - | 228 W/m² | - |
| 1788704607 | 31.67° C | 70% | 1015.7 hPa | 0 mm | - | 213 W/m² | - |
| 1788704301 | 31.11° C | 70% | 1015.5 hPa | 0 mm | - | 201 W/m² | - |
| 1788703996 | 30.56° C | 71% | 1015.7 hPa | 0 mm | - | 187 W/m² | - |
| 1788703694 | 31.67° C | 70% | 1015.6 hPa | 0 mm | - | 175 W/m² | - |
| 1788703389 | 30.56° C | 71% | 1015.6 hPa | 0 mm | - | 162 W/m² | - |
| 1788703087 | 30.56° C | 73% | 1015.4 hPa | 0 mm | - | 148 W/m² | - |
| 1788702782 | 30° C | 75% | 1015.5 hPa | 0 mm | - | 135 W/m² | - |
| 1788702477 | 30° C | 74% | 1015.3 hPa | 0 mm | - | 124 W/m² | - |
| 1788702172 | 30° C | 76% | 1015.3 hPa | 0 mm | - | 113 W/m² | - |
| 1788701868 | 30° C | 76% | 1015.4 hPa | 0 mm | - | 104 W/m² | - |
| 1788701564 | 29.44° C | 77% | 1015.2 hPa | 0 mm | - | 95 W/m² | - |
| 1788701259 | 29.44° C | 77% | 1015.3 hPa | 0 mm | - | 86 W/m² | - |
| 1788700954 | 30.56° C | 74% | 1015.4 hPa | 0 mm | - | 78 W/m² | - |
| 1788700650 | 30.56° C | 76% | 1015.7 hPa | 0 mm | - | 69 W/m² | - |
| 1788700344 | 30.56° C | 72% | 1015.4 hPa | 0 mm | - | 61 W/m² | - |
| 1788700040 | 30° C | 74% | 1015.4 hPa | 0 mm | - | 53 W/m² | - |
| 1788699735 | 29.44° C | 77% | 1015.4 hPa | 0 mm | - | 45 W/m² | - |
| 1788699433 | 28.89° C | 79% | 1015.1 hPa | 0 mm | - | 39 W/m² | - |
| 1788699131 | 28.33° C | 80% | 1015.1 hPa | 0 mm | - | 33 W/m² | - |
* Rain latest hour (hover to see other rain measurements)
** Current wind speed in m/s (hover to see current wind gust speed)